sensor_id;sensor_type;location;lat;lon;timestamp;pressure;altitude;pressure_sealevel;temperature;humidity
57708;BME280;43540;51.690;9.562;2023-09-07T05:31:08;99900.34;;;13.58;100.00
57708;BME280;43540;51.690;9.562;2023-09-07T05:33:38;99895.50;;;13.54;100.00
57708;BME280;43540;51.690;9.562;2023-09-07T05:36:05;99911.38;;;13.73;100.00
57708;BME280;43540;51.690;9.562;2023-09-07T05:38:31;99913.59;;;13.78;100.00
57708;BME280;43540;51.690;9.562;2023-09-07T05:41:00;99920.28;;;13.82;100.00
57708;BME280;43540;51.690;9.562;2023-09-07T05:43:26;99919.75;;;13.88;100.00
57708;BME280;43540;51.690;9.562;2023-09-07T05:45:53;99912.13;;;13.94;100.00
57708;BME280;43540;51.690;9.562;2023-09-07T05:48:20;99919.25;;;14.04;100.00
57708;BME280;43540;51.690;9.562;2023-09-07T05:50:47;99921.03;;;14.03;100.00
57708;BME280;43540;51.690;9.562;2023-09-07T05:53:14;99922.88;;;14.12;100.00
57708;BME280;43540;51.690;9.562;2023-09-07T05:55:46;99923.44;;;14.16;100.00
57708;BME280;43540;51.690;9.562;2023-09-07T05:58:13;99923.88;;;14.21;100.00
57708;BME280;43540;51.690;9.562;2023-09-07T06:00:40;99925.00;;;14.28;100.00
57708;BME280;43540;51.690;9.562;2023-09-07T06:03:08;99922.78;;;14.33;100.00
57708;BME280;43540;51.690;9.562;2023-09-07T06:05:36;99908.63;;;14.34;100.00
57708;BME280;43540;51.690;9.562;2023-09-07T06:08:05;99900.31;;;14.39;100.00
57708;BME280;43540;51.690;9.562;2023-09-07T06:10:35;99924.25;;;14.57;100.00
57708;BME280;43540;51.690;9.562;2023-09-07T06:13:02;99918.38;;;14.63;100.00
57708;BME280;43540;51.690;9.562;2023-09-07T06:15:30;99923.97;;;14.69;100.00
57708;BME280;43540;51.690;9.562;2023-09-07T06:18:00;99927.44;;;14.79;100.00
57708;BME280;43540;51.690;9.562;2023-09-07T06:20:27;99924.53;;;14.83;100.00
57708;BME280;43540;51.690;9.562;2023-09-07T06:22:54;99930.19;;;14.97;100.00
57708;BME280;43540;51.690;9.562;2023-09-07T06:25:21;99938.25;;;15.05;100.00
57708;BME280;43540;51.690;9.562;2023-09-07T06:27:49;99907.13;;;14.99;100.00
57708;BME280;43540;51.690;9.562;2023-09-07T06:30:15;99929.91;;;15.29;100.00
57708;BME280;43540;51.690;9.562;2023-09-07T06:32:42;99931.09;;;15.45;100.00
57708;BME280;43540;51.690;9.562;2023-09-07T06:35:10;99925.78;;;15.54;100.00
57708;BME280;43540;51.690;9.562;2023-09-07T06:37:37;99918.81;;;15.73;100.00
57708;BME280;43540;51.690;9.562;2023-09-07T06:40:07;99922.63;;;15.88;100.00
57708;BME280;43540;51.690;9.562;2023-09-07T06:42:35;99919.50;;;16.02;100.00
57708;BME280;43540;51.690;9.562;2023-09-07T06:45:02;99914.53;;;16.17;100.00
57708;BME280;43540;51.690;9.562;2023-09-07T06:47:29;99922.66;;;16.33;100.00
57708;BME280;43540;51.690;9.562;2023-09-07T06:49:59;99916.63;;;16.41;100.00
57708;BME280;43540;51.690;9.562;2023-09-07T06:52:26;99923.28;;;16.63;100.00
57708;BME280;43540;51.690;9.562;2023-09-07T06:54:53;99911.38;;;16.76;100.00
57708;BME280;43540;51.690;9.562;2023-09-07T06:57:21;99909.78;;;16.84;100.00
57708;BME280;43540;51.690;9.562;2023-09-07T06:59:48;99908.41;;;16.97;100.00
57708;BME280;43540;51.690;9.562;2023-09-07T07:02:15;99914.97;;;17.11;100.00
57708;BME280;43540;51.690;9.562;2023-09-07T07:04:42;99905.06;;;17.13;100.00
57708;BME280;43540;51.690;9.562;2023-09-07T07:07:10;99917.78;;;17.35;100.00
57708;BME280;43540;51.690;9.562;2023-09-07T07:09:37;99911.69;;;17.17;100.00
57708;BME280;43540;51.690;9.562;2023-09-07T07:12:07;99895.06;;;17.07;100.00
57708;BME280;43540;51.690;9.562;2023-09-07T07:14:34;99915.72;;;17.21;100.00
57708;BME280;43540;51.690;9.562;2023-09-07T07:17:01;99920.59;;;17.60;100.00
57708;BME280;43540;51.690;9.562;2023-09-07T07:19:31;99922.03;;;17.80;100.00
57708;BME280;43540;51.690;9.562;2023-09-07T07:21:58;99929.75;;;18.00;100.00
57708;BME280;43540;51.690;9.562;2023-09-07T07:24:25;99918.34;;;17.73;100.00
57708;BME280;43540;51.690;9.562;2023-09-07T07:26:55;99921.22;;;17.80;100.00
57708;BME280;43540;51.690;9.562;2023-09-07T07:29:21;99917.59;;;17.89;100.00
57708;BME280;43540;51.690;9.562;2023-09-07T07:31:48;99930.59;;;18.08;100.00
57708;BME280;43540;51.690;9.562;2023-09-07T07:34:15;99929.34;;;18.21;100.00
57708;BME280;43540;51.690;9.562;2023-09-07T07:36:42;99921.75;;;18.34;100.00
57708;BME280;43540;51.690;9.562;2023-09-07T07:39:09;99931.56;;;18.50;100.00
57708;BME280;43540;51.690;9.562;2023-09-07T07:41:36;99928.97;;;18.66;100.00
57708;BME280;43540;51.690;9.562;2023-09-07T07:44:06;99930.13;;;18.71;100.00
57708;BME280;43540;51.690;9.562;2023-09-07T07:46:33;99920.16;;;18.73;100.00
57708;BME280;43540;51.690;9.562;2023-09-07T07:49:00;99933.97;;;18.93;100.00
57708;BME280;43540;51.690;9.562;2023-09-07T07:51:27;99941.28;;;18.99;100.00
57708;BME280;43540;51.690;9.562;2023-09-07T07:53:54;99936.13;;;19.06;100.00
57708;BME280;43540;51.690;9.562;2023-09-07T07:56:23;99934.31;;;19.15;100.00
57708;BME280;43540;51.690;9.562;2023-09-07T07:58:50;99925.97;;;19.34;100.00
57708;BME280;43540;51.690;9.562;2023-09-07T08:01:18;99877.97;;;19.19;100.00
57708;BME280;43540;51.690;9.562;2023-09-07T08:03:47;99925.41;;;19.55;100.00
57708;BME280;43540;51.690;9.562;2023-09-07T08:06:14;99930.59;;;19.65;100.00
57708;BME280;43540;51.690;9.562;2023-09-07T08:08:41;99937.72;;;19.64;100.00
57708;BME280;43540;51.690;9.562;2023-09-07T08:11:08;99925.75;;;19.76;100.00
57708;BME280;43540;51.690;9.562;2023-09-07T08:13:35;99924.38;;;19.88;100.00
57708;BME280;43540;51.690;9.562;2023-09-07T08:16:03;99918.78;;;20.14;100.00
57708;BME280;43540;51.690;9.562;2023-09-07T08:18:33;99922.03;;;20.25;100.00
57708;BME280;43540;51.690;9.562;2023-09-07T08:21:01;99918.50;;;20.32;100.00
57708;BME280;43540;51.690;9.562;2023-09-07T08:23:29;99917.94;;;20.45;100.00
57708;BME280;43540;51.690;9.562;2023-09-07T08:25:55;99915.88;;;20.55;100.00
57708;BME280;43540;51.690;9.562;2023-09-07T08:28:22;99920.59;;;20.76;100.00
57708;BME280;43540;51.690;9.562;2023-09-07T08:30:50;99922.19;;;20.85;100.00
57708;BME280;43540;51.690;9.562;2023-09-07T08:33:23;99921.75;;;20.96;100.00
57708;BME280;43540;51.690;9.562;2023-09-07T08:35:53;99918.00;;;21.06;100.00
57708;BME280;43540;51.690;9.562;2023-09-07T08:41:23;99885.41;;;21.18;100.00
57708;BME280;43540;51.690;9.562;2023-09-07T08:43:54;99905.31;;;21.45;100.00
57708;BME280;43540;51.690;9.562;2023-09-07T08:46:22;99906.06;;;21.54;100.00
57708;BME280;43540;51.690;9.562;2023-09-07T08:48:50;99909.47;;;21.63;100.00
57708;BME280;43540;51.690;9.562;2023-09-07T08:51:18;99908.84;;;21.61;100.00
57708;BME280;43540;51.690;9.562;2023-09-07T08:53:46;99910.50;;;21.76;100.00
57708;BME280;43540;51.690;9.562;2023-09-07T08:56:13;99905.59;;;21.95;100.00
57708;BME280;43540;51.690;9.562;2023-09-07T08:58:42;99900.59;;;22.06;100.00
57708;BME280;43540;51.690;9.562;2023-09-07T09:01:11;99908.91;;;22.11;100.00
57708;BME280;43540;51.690;9.562;2023-09-07T09:03:40;99912.56;;;22.25;100.00
57708;BME280;43540;51.690;9.562;2023-09-07T09:06:09;99903.03;;;22.37;100.00
57708;BME280;43540;51.690;9.562;2023-09-07T09:08:47;99903.94;;;22.45;100.00
57708;BME280;43540;51.690;9.562;2023-09-07T09:11:18;99895.81;;;22.53;100.00
57708;BME280;43540;51.690;9.562;2023-09-07T09:13:46;99893.97;;;22.53;100.00
57708;BME280;43540;51.690;9.562;2023-09-07T09:16:14;99904.84;;;22.73;100.00
57708;BME280;43540;51.690;9.562;2023-09-07T09:18:52;99902.34;;;22.86;100.00
57708;BME280;43540;51.690;9.562;2023-09-07T09:21:20;99903.16;;;22.87;100.00
57708;BME280;43540;51.690;9.562;2023-09-07T09:23:52;99885.97;;;22.96;100.00
57708;BME280;43540;51.690;9.562;2023-09-07T09:26:33;99904.03;;;23.22;100.00
57708;BME280;43540;51.690;9.562;2023-09-07T09:29:00;99898.75;;;23.28;100.00
57708;BME280;43540;51.690;9.562;2023-09-07T09:31:29;99900.66;;;23.35;100.00
57708;BME280;43540;51.690;9.562;2023-09-07T09:33:58;99878.03;;;23.37;100.00
57708;BME280;43540;51.690;9.562;2023-09-07T09:36:33;99893.66;;;23.62;100.00
57708;BME280;43540;51.690;9.562;2023-09-07T09:38:59;99863.31;;;23.54;100.00
57708;BME280;43540;51.690;9.562;2023-09-07T09:41:27;99886.53;;;23.82;100.00
57708;BME280;43540;51.690;9.562;2023-09-07T09:43:55;99872.75;;;23.85;91.53
57708;BME280;43540;51.690;9.562;2023-09-07T09:46:23;99872.56;;;23.93;100.00
57708;BME280;43540;51.690;9.562;2023-09-07T09:48:51;99877.81;;;24.15;96.20
57708;BME280;43540;51.690;9.562;2023-09-07T09:51:18;99876.16;;;24.20;95.25
57708;BME280;43540;51.690;9.562;2023-09-07T09:53:45;99861.78;;;24.28;95.38
57708;BME280;43540;51.690;9.562;2023-09-07T09:56:14;99863.47;;;24.35;89.44
57708;BME280;43540;51.690;9.562;2023-09-07T09:58:41;99866.59;;;24.46;93.08
57708;BME280;43540;51.690;9.562;2023-09-07T10:01:09;99838.94;;;24.38;78.27
57708;BME280;43540;51.690;9.562;2023-09-07T10:03:43;99854.22;;;24.51;79.39
57708;BME280;43540;51.690;9.562;2023-09-07T10:06:19;99850.53;;;24.65;79.35
57708;BME280;43540;51.690;9.562;2023-09-07T10:09:13;99843.53;;;24.71;79.04
57708;BME280;43540;51.690;9.562;2023-09-07T10:11:51;99865.38;;;24.88;77.78
57708;BME280;43540;51.690;9.562;2023-09-07T10:14:18;99850.13;;;24.82;74.21
57708;BME280;43540;51.690;9.562;2023-09-07T10:16:50;99860.44;;;25.05;76.58
57708;BME280;43540;51.690;9.562;2023-09-07T10:19:24;99841.44;;;24.93;75.32
57708;BME280;43540;51.690;9.562;2023-09-07T10:21:56;99862.50;;;25.09;69.05
57708;BME280;43540;51.690;9.562;2023-09-07T10:24:31;99858.59;;;25.12;70.11
57708;BME280;43540;51.690;9.562;2023-09-07T10:27:04;99850.75;;;25.17;71.69
57708;BME280;43540;51.690;9.562;2023-09-07T10:29:45;99854.84;;;25.26;68.64
57708;BME280;43540;51.690;9.562;2023-09-07T10:32:18;99837.91;;;25.32;73.54
57708;BME280;43540;51.690;9.562;2023-09-07T10:34:46;99844.81;;;25.66;68.59
57708;BME280;43540;51.690;9.562;2023-09-07T10:37:14;99850.00;;;25.74;70.32
57708;BME280;43540;51.690;9.562;2023-09-07T10:39:43;99842.97;;;25.80;68.35
57708;BME280;43540;51.690;9.562;2023-09-07T10:42:26;99828.50;;;25.81;64.81
57708;BME280;43540;51.690;9.562;2023-09-07T10:44:53;99839.75;;;25.96;71.24
57708;BME280;43540;51.690;9.562;2023-09-07T10:47:20;99823.66;;;25.96;65.87
57708;BME280;43540;51.690;9.562;2023-09-07T10:49:47;99837.84;;;26.10;64.44
57708;BME280;43540;51.690;9.562;2023-09-07T10:52:14;99839.03;;;26.21;63.48
57708;BME280;43540;51.690;9.562;2023-09-07T10:54:41;99828.88;;;26.23;60.43
57708;BME280;43540;51.690;9.562;2023-09-07T10:57:12;99807.63;;;26.15;61.12
57708;BME280;43540;51.690;9.562;2023-09-07T10:59:45;99836.09;;;26.29;59.95
57708;BME280;43540;51.690;9.562;2023-09-07T11:02:13;99827.34;;;26.40;65.37
57708;BME280;43540;51.690;9.562;2023-09-07T11:04:43;99823.25;;;26.38;64.10
57708;BME280;43540;51.690;9.562;2023-09-07T11:07:11;99813.06;;;26.46;59.61
57708;BME280;43540;51.690;9.562;2023-09-07T11:09:42;99823.03;;;26.64;62.29
57708;BME280;43540;51.690;9.562;2023-09-07T11:12:13;99799.16;;;26.49;59.30
57708;BME280;43540;51.690;9.562;2023-09-07T11:14:42;99819.94;;;26.60;59.09
57708;BME280;43540;51.690;9.562;2023-09-07T11:17:09;99817.53;;;26.77;63.95
57708;BME280;43540;51.690;9.562;2023-09-07T11:19:36;99816.06;;;26.81;64.81
57708;BME280;43540;51.690;9.562;2023-09-07T11:22:03;99801.13;;;26.85;63.85
57708;BME280;43540;51.690;9.562;2023-09-07T11:24:32;99783.63;;;26.76;59.05
57708;BME280;43540;51.690;9.562;2023-09-07T11:27:01;99811.56;;;27.00;60.76
57708;BME280;43540;51.690;9.562;2023-09-07T11:29:32;99806.47;;;26.92;60.09
57708;BME280;43540;51.690;9.562;2023-09-07T11:32:06;99808.31;;;27.16;58.17
57708;BME280;43540;51.690;9.562;2023-09-07T11:34:34;99796.06;;;27.20;58.28
57708;BME280;43540;51.690;9.562;2023-09-07T11:37:02;99804.50;;;27.24;54.81
57708;BME280;43540;51.690;9.562;2023-09-07T11:39:29;99791.66;;;27.26;52.97
57708;BME280;43540;51.690;9.562;2023-09-07T11:41:56;99792.72;;;27.25;51.99
57708;BME280;43540;51.690;9.562;2023-09-07T11:44:24;99792.47;;;27.27;54.10
57708;BME280;43540;51.690;9.562;2023-09-07T11:46:51;99802.25;;;27.39;54.13
57708;BME280;43540;51.690;9.562;2023-09-07T11:49:18;99802.34;;;27.33;56.10
57708;BME280;43540;51.690;9.562;2023-09-07T11:51:46;99788.06;;;27.32;54.02
57708;BME280;43540;51.690;9.562;2023-09-07T11:54:14;99770.78;;;27.40;51.12
57708;BME280;43540;51.690;9.562;2023-09-07T11:56:41;99801.06;;;27.54;53.36
57708;BME280;43540;51.690;9.562;2023-09-07T11:59:09;99774.88;;;27.61;53.85
57708;BME280;43540;51.690;9.562;2023-09-07T12:01:36;99787.47;;;27.67;53.88
57708;BME280;43540;51.690;9.562;2023-09-07T12:04:06;99788.44;;;27.72;51.18
57708;BME280;43540;51.690;9.562;2023-09-07T12:06:41;99778.38;;;27.80;51.38
57708;BME280;43540;51.690;9.562;2023-09-07T12:09:08;99767.59;;;27.80;52.31
57708;BME280;43540;51.690;9.562;2023-09-07T12:11:38;99778.75;;;27.83;50.75
57708;BME280;43540;51.690;9.562;2023-09-07T12:14:05;99749.97;;;27.65;50.67
57708;BME280;43540;51.690;9.562;2023-09-07T12:17:03;99784.50;;;27.87;50.18
57708;BME280;43540;51.690;9.562;2023-09-07T12:19:30;99775.53;;;28.04;50.51
57708;BME280;43540;51.690;9.562;2023-09-07T12:22:00;99778.97;;;28.12;52.08
57708;BME280;43540;51.690;9.562;2023-09-07T12:27:40;99652.91;;;27.30;48.21
57708;BME280;43540;51.690;9.562;2023-09-07T12:30:20;99606.28;;;27.00;46.37
57708;BME280;43540;51.690;9.562;2023-09-07T12:46:44;99693.84;;;27.81;48.85
57708;BME280;43540;51.690;9.562;2023-09-07T12:49:14;99620.56;;;27.48;49.47
57708;BME280;43540;51.690;9.562;2023-09-07T12:51:45;99611.63;;;27.36;50.01
57708;BME280;43540;51.690;9.562;2023-09-07T13:05:36;99727.84;;;28.47;48.67
57708;BME280;43540;51.690;9.562;2023-09-07T13:08:03;99747.66;;;28.52;46.18
57708;BME280;43540;51.690;9.562;2023-09-07T13:10:30;99725.25;;;28.40;46.45
57708;BME280;43540;51.690;9.562;2023-09-07T13:23:33;99691.50;;;28.38;45.99
57708;BME280;43540;51.690;9.562;2023-09-07T13:26:01;99734.44;;;28.63;45.81
57708;BME280;43540;51.690;9.562;2023-09-07T13:28:28;99731.50;;;28.64;46.86
57708;BME280;43540;51.690;9.562;2023-09-07T13:30:57;99727.50;;;28.78;47.23
57708;BME280;43540;51.690;9.562;2023-09-07T13:33:24;99717.06;;;28.70;45.87
57708;BME280;43540;51.690;9.562;2023-09-07T13:35:52;99732.22;;;28.71;47.12
57708;BME280;43540;51.690;9.562;2023-09-07T13:38:18;99725.16;;;28.58;47.01
57708;BME280;43540;51.690;9.562;2023-09-07T13:40:45;99731.38;;;28.82;45.40
57708;BME280;43540;51.690;9.562;2023-09-07T13:43:12;99724.59;;;28.92;45.14
57708;BME280;43540;51.690;9.562;2023-09-07T13:45:39;99722.69;;;29.04;44.65
57708;BME280;43540;51.690;9.562;2023-09-07T13:48:06;99721.50;;;28.88;44.05
57708;BME280;43540;51.690;9.562;2023-09-07T13:50:33;99713.06;;;28.84;43.24
57708;BME280;43540;51.690;9.562;2023-09-07T13:53:08;99713.81;;;28.92;45.24
57708;BME280;43540;51.690;9.562;2023-09-07T13:55:35;99719.84;;;28.87;42.80
57708;BME280;43540;51.690;9.562;2023-09-07T13:58:01;99721.41;;;28.95;42.36
57708;BME280;43540;51.690;9.562;2023-09-07T14:00:31;99719.53;;;28.95;39.64
57708;BME280;43540;51.690;9.562;2023-09-07T14:02:58;99719.41;;;28.78;39.57
57708;BME280;43540;51.690;9.562;2023-09-07T14:05:25;99720.34;;;28.96;39.77
57708;BME280;43540;51.690;9.562;2023-09-07T14:07:52;99716.13;;;28.76;40.10
57708;BME280;43540;51.690;9.562;2023-09-07T14:10:19;99722.47;;;28.82;40.05
57708;BME280;43540;51.690;9.562;2023-09-07T14:12:46;99715.53;;;28.98;41.35
57708;BME280;43540;51.690;9.562;2023-09-07T14:15:15;99708.84;;;29.00;37.68
57708;BME280;43540;51.690;9.562;2023-09-07T14:17:42;99709.09;;;28.75;38.68
57708;BME280;43540;51.690;9.562;2023-09-07T14:20:09;99701.59;;;29.01;38.07
57708;BME280;43540;51.690;9.562;2023-09-07T14:22:36;99696.28;;;29.06;38.75
57708;BME280;43540;51.690;9.562;2023-09-07T14:25:03;99707.19;;;28.87;38.94
57708;BME280;43540;51.690;9.562;2023-09-07T14:27:30;99708.97;;;28.82;38.33
57708;BME280;43540;51.690;9.562;2023-09-07T14:29:56;99710.69;;;28.88;39.45
57708;BME280;43540;51.690;9.562;2023-09-07T14:32:26;99692.31;;;28.73;37.67
57708;BME280;43540;51.690;9.562;2023-09-07T14:34:53;99700.78;;;28.65;37.66
57708;BME280;43540;51.690;9.562;2023-09-07T14:37:20;99697.38;;;28.58;38.34
57708;BME280;43540;51.690;9.562;2023-09-07T14:39:47;99700.31;;;28.92;38.13
57708;BME280;43540;51.690;9.562;2023-09-07T14:42:16;99699.22;;;28.69;39.85
57708;BME280;43540;51.690;9.562;2023-09-07T14:44:46;99699.81;;;28.59;38.32
57708;BME280;43540;51.690;9.562;2023-09-07T14:47:13;99697.81;;;28.78;38.21
57708;BME280;43540;51.690;9.562;2023-09-07T14:49:40;99699.81;;;28.95;39.60
57708;BME280;43540;51.690;9.562;2023-09-07T14:52:07;99701.34;;;28.79;40.05
57708;BME280;43540;51.690;9.562;2023-09-07T14:54:33;99686.34;;;28.59;41.45
57708;BME280;43540;51.690;9.562;2023-09-07T14:57:00;99693.25;;;28.67;38.84
57708;BME280;43540;51.690;9.562;2023-09-07T14:59:29;99697.13;;;28.95;38.93
57708;BME280;43540;51.690;9.562;2023-09-07T15:01:57;99690.09;;;28.58;37.53
57708;BME280;43540;51.690;9.562;2023-09-07T15:04:32;99708.84;;;29.00;38.33
57708;BME280;43540;51.690;9.562;2023-09-07T15:06:58;99703.00;;;28.68;39.22
57708;BME280;43540;51.690;9.562;2023-09-07T15:09:25;99689.94;;;28.88;37.42
57708;BME280;43540;51.690;9.562;2023-09-07T15:11:52;99696.31;;;28.94;37.14
57708;BME280;43540;51.690;9.562;2023-09-07T15:14:23;99692.41;;;28.78;37.63
57708;BME280;43540;51.690;9.562;2023-09-07T15:16:50;99696.91;;;28.73;37.82
57708;BME280;43540;51.690;9.562;2023-09-07T15:19:17;99677.06;;;28.79;38.74
57708;BME280;43540;51.690;9.562;2023-09-07T15:21:46;99674.34;;;28.79;37.74
57708;BME280;43540;51.690;9.562;2023-09-07T15:24:17;99685.28;;;28.84;38.06
57708;BME280;43540;51.690;9.562;2023-09-07T15:27:12;99679.38;;;28.87;36.72
57708;BME280;43540;51.690;9.562;2023-09-07T15:29:40;99696.41;;;28.87;37.13
57708;BME280;43540;51.690;9.562;2023-09-07T15:32:07;99691.72;;;28.59;37.82
57708;BME280;43540;51.690;9.562;2023-09-07T15:34:34;99680.97;;;28.48;39.09
57708;BME280;43540;51.690;9.562;2023-09-07T15:37:04;99677.78;;;28.74;38.41
57708;BME280;43540;51.690;9.562;2023-09-07T15:39:32;99687.63;;;28.57;39.49
57708;BME280;43540;51.690;9.562;2023-09-07T15:41:58;99686.13;;;28.38;38.96
57708;BME280;43540;51.690;9.562;2023-09-07T15:44:25;99682.38;;;28.39;39.81
57708;BME280;43540;51.690;9.562;2023-09-07T15:46:55;99669.22;;;28.19;39.95
57708;BME280;43540;51.690;9.562;2023-09-07T15:49:23;99684.41;;;28.13;41.09
57708;BME280;43540;51.690;9.562;2023-09-07T15:51:49;99682.19;;;27.98;42.46
57708;BME280;43540;51.690;9.562;2023-09-07T15:54:16;99682.78;;;28.00;43.04
57708;BME280;43540;51.690;9.562;2023-09-07T15:56:43;99680.75;;;27.96;42.03
57708;BME280;43540;51.690;9.562;2023-09-07T15:59:10;99688.47;;;27.81;41.62
57708;BME280;43540;51.690;9.562;2023-09-07T16:01:37;99685.06;;;27.73;41.47
57708;BME280;43540;51.690;9.562;2023-09-07T16:04:04;99683.44;;;27.54;44.53
57708;BME280;43540;51.690;9.562;2023-09-07T16:06:31;99683.66;;;27.53;43.87
57708;BME280;43540;51.690;9.562;2023-09-07T16:09:00;99672.00;;;27.40;44.77
57708;BME280;43540;51.690;9.562;2023-09-07T16:11:27;99677.63;;;27.39;44.71
57708;BME280;43540;51.690;9.562;2023-09-07T16:13:54;99680.81;;;27.47;47.19
57708;BME280;43540;51.690;9.562;2023-09-07T16:16:20;99663.19;;;27.33;46.79
57708;BME280;43540;51.690;9.562;2023-09-07T16:18:49;99683.25;;;27.37;45.45
57708;BME280;43540;51.690;9.562;2023-09-07T16:21:16;99671.63;;;27.25;47.20
57708;BME280;43540;51.690;9.562;2023-09-07T16:23:46;99668.25;;;27.11;47.47
57708;BME280;43540;51.690;9.562;2023-09-07T16:26:12;99672.34;;;27.14;46.98
57708;BME280;43540;51.690;9.562;2023-09-07T16:28:40;99661.47;;;27.09;48.12
57708;BME280;43540;51.690;9.562;2023-09-07T16:31:07;99665.88;;;27.03;48.63
57708;BME280;43540;51.690;9.562;2023-09-07T16:33:37;99669.41;;;26.97;50.69
57708;BME280;43540;51.690;9.562;2023-09-07T16:36:04;99654.63;;;26.70;50.49
57708;BME280;43540;51.690;9.562;2023-09-07T16:38:31;99674.19;;;26.77;51.08
57708;BME280;43540;51.690;9.562;2023-09-07T16:41:05;99664.03;;;26.79;50.52
57708;BME280;43540;51.690;9.562;2023-09-07T16:43:32;99663.00;;;26.61;51.07
57708;BME280;43540;51.690;9.562;2023-09-07T16:45:59;99670.16;;;26.49;52.36
57708;BME280;43540;51.690;9.562;2023-09-07T16:48:27;99661.72;;;26.46;53.26
57708;BME280;43540;51.690;9.562;2023-09-07T16:50:54;99670.00;;;26.44;54.65
57708;BME280;43540;51.690;9.562;2023-09-07T16:53:21;99666.69;;;26.17;57.10
57708;BME280;43540;51.690;9.562;2023-09-07T16:55:52;99665.59;;;26.00;57.31
57708;BME280;43540;51.690;9.562;2023-09-07T16:58:18;99660.38;;;26.05;57.54
57708;BME280;43540;51.690;9.562;2023-09-07T17:00:47;99663.56;;;25.95;57.18
57708;BME280;43540;51.690;9.562;2023-09-07T17:03:14;99660.72;;;25.90;59.31
57708;BME280;43540;51.690;9.562;2023-09-07T17:05:41;99665.34;;;25.76;59.83
57708;BME280;43540;51.690;9.562;2023-09-07T17:08:08;99666.25;;;25.57;61.80
57708;BME280;43540;51.690;9.562;2023-09-07T17:10:35;99650.53;;;25.29;63.75
57708;BME280;43540;51.690;9.562;2023-09-07T17:13:03;99645.03;;;25.11;66.67
57708;BME280;43540;51.690;9.562;2023-09-07T17:15:30;99641.75;;;24.95;68.01
57708;BME280;43540;51.690;9.562;2023-09-07T17:18:15;99659.06;;;25.13;67.78
57708;BME280;43540;51.690;9.562;2023-09-07T17:20:41;99657.38;;;25.25;67.12
57708;BME280;43540;51.690;9.562;2023-09-07T17:23:08;99650.78;;;25.14;66.00
57708;BME280;43540;51.690;9.562;2023-09-07T17:25:36;99662.53;;;25.20;67.10
57708;BME280;43540;51.690;9.562;2023-09-07T17:28:03;99656.44;;;25.06;67.57
57708;BME280;43540;51.690;9.562;2023-09-07T17:30:48;99673.13;;;25.08;68.12
57708;BME280;43540;51.690;9.562;2023-09-07T17:36:51;99527.00;;;24.01;70.38
57708;BME280;43540;51.690;9.562;2023-09-07T17:39:21;99495.94;;;23.67;71.17
57708;BME280;43540;51.690;9.562;2023-09-07T17:41:48;99490.38;;;23.49;72.77
57708;BME280;43540;51.690;9.562;2023-09-07T17:44:15;99503.72;;;23.22;73.97
57708;BME280;43540;51.690;9.562;2023-09-07T17:47:06;99689.13;;;24.37;75.02
57708;BME280;43540;51.690;9.562;2023-09-07T17:49:33;99680.66;;;24.07;80.63
57708;BME280;43540;51.690;9.562;2023-09-07T17:52:00;99684.56;;;24.04;80.15
57708;BME280;43540;51.690;9.562;2023-09-07T17:54:28;99679.19;;;23.91;78.99
57708;BME280;43540;51.690;9.562;2023-09-07T17:56:56;99679.41;;;23.83;81.90
57708;BME280;43540;51.690;9.562;2023-09-07T17:59:23;99685.31;;;23.65;85.82
57708;BME280;43540;51.690;9.562;2023-09-07T18:01:50;99678.91;;;23.53;86.43
57708;BME280;43540;51.690;9.562;2023-09-07T18:04:17;99671.22;;;23.37;86.67
57708;BME280;43540;51.690;9.562;2023-09-07T18:06:44;99687.63;;;23.20;89.61
57708;BME280;43540;51.690;9.562;2023-09-07T18:09:11;99679.94;;;23.04;90.83
57708;BME280;43540;51.690;9.562;2023-09-07T18:11:41;99679.19;;;22.82;93.41
57708;BME280;43540;51.690;9.562;2023-09-07T18:14:11;99686.00;;;22.85;92.28
57708;BME280;43540;51.690;9.562;2023-09-07T18:16:40;99690.91;;;22.81;90.92
57708;BME280;43540;51.690;9.562;2023-09-07T18:19:09;99695.38;;;22.74;91.13
57708;BME280;43540;51.690;9.562;2023-09-07T18:21:38;99667.13;;;22.58;91.59
57708;BME280;43540;51.690;9.562;2023-09-07T18:24:07;99698.94;;;22.25;93.25
57708;BME280;43540;51.690;9.562;2023-09-07T18:26:34;99665.22;;;22.03;95.46
57708;BME280;43540;51.690;9.562;2023-09-07T18:29:02;99686.09;;;22.35;94.50
57708;BME280;43540;51.690;9.562;2023-09-07T18:31:31;99689.66;;;22.49;91.64
57708;BME280;43540;51.690;9.562;2023-09-07T18:33:58;99689.78;;;22.34;89.74
57708;BME280;43540;51.690;9.562;2023-09-07T18:36:25;99696.81;;;22.42;88.65
57708;BME280;43540;51.690;9.562;2023-09-07T18:38:51;99697.38;;;22.37;87.86
57708;BME280;43540;51.690;9.562;2023-09-07T18:41:18;99693.75;;;22.45;87.84
57708;BME280;43540;51.690;9.562;2023-09-07T18:43:45;99694.34;;;22.40;87.43
57708;BME280;43540;51.690;9.562;2023-09-07T18:46:17;99715.81;;;22.54;89.05
57708;BME280;43540;51.690;9.562;2023-09-07T18:48:44;99724.22;;;22.51;89.80
57708;BME280;43540;51.690;9.562;2023-09-07T18:51:11;99693.22;;;22.28;90.47
57708;BME280;43540;51.690;9.562;2023-09-07T18:53:38;99710.94;;;22.36;92.47
57708;BME280;43540;51.690;9.562;2023-09-07T18:56:06;99720.47;;;22.02;95.03
57708;BME280;43540;51.690;9.562;2023-09-07T18:58:34;99716.34;;;22.21;93.36
57708;BME280;43540;51.690;9.562;2023-09-07T19:01:17;99717.00;;;22.23;94.50
57708;BME280;43540;51.690;9.562;2023-09-07T19:04:07;99717.50;;;22.12;93.94
57708;BME280;43540;51.690;9.562;2023-09-07T19:06:36;99713.25;;;21.96;96.15
57708;BME280;43540;51.690;9.562;2023-09-07T19:09:08;99717.25;;;21.85;97.78
57708;BME280;43540;51.690;9.562;2023-09-07T19:11:36;99717.53;;;21.76;98.20
57708;BME280;43540;51.690;9.562;2023-09-07T19:14:05;99712.88;;;21.63;99.98
57708;BME280;43540;51.690;9.562;2023-09-07T19:16:31;99711.28;;;21.47;100.00
57708;BME280;43540;51.690;9.562;2023-09-07T19:19:01;99710.31;;;21.34;100.00
57708;BME280;43540;51.690;9.562;2023-09-07T19:21:29;99713.22;;;21.24;100.00